createdAt,value
2018-01-03T00:01:06.365Z,101036.50
2018-01-03T00:04:08.238Z,101030.80
2018-01-03T00:07:10.104Z,101019.89
2018-01-03T00:10:12.386Z,101015.30
2018-01-03T00:13:14.394Z,101003.85
2018-01-03T00:16:16.279Z,100993.48
2018-01-03T00:19:18.158Z,100985.06
2018-01-03T00:22:20.035Z,100964.94
2018-01-03T00:25:21.939Z,100948.87
2018-01-03T00:28:23.798Z,100939.65
2018-01-03T00:31:25.681Z,100939.65
2018-01-03T00:34:27.757Z,100932.85
2018-01-03T00:37:29.627Z,100913.51
2018-01-03T00:40:31.513Z,100908.35
2018-01-03T00:43:33.402Z,100904.02
2018-01-03T00:46:35.863Z,100886.91
2018-01-03T00:49:37.768Z,100871.68
2018-01-03T00:52:39.658Z,100858.04
2018-01-03T00:55:41.518Z,100864.56
2018-01-03T00:58:43.708Z,100872.31
2018-01-03T01:01:45.770Z,100869.05
2018-01-03T01:04:47.983Z,100863.35
2018-01-03T01:07:49.847Z,100856.82
2018-01-03T01:10:51.763Z,100850.83
2018-01-03T01:13:53.616Z,100847.62
2018-01-03T01:16:55.513Z,100835.89
2018-01-03T01:19:57.498Z,100822.35
2018-01-03T01:22:59.383Z,100827.80
2018-01-03T01:26:01.250Z,100812.03
2018-01-03T01:29:03.135Z,100783.93
2018-01-03T01:32:04.998Z,100767.92
2018-01-03T01:35:06.887Z,100782.92
2018-01-03T01:38:08.755Z,100771.53
2018-01-03T01:41:10.641Z,100764.71
2018-01-03T01:44:12.522Z,100766.61
2018-01-03T01:47:14.403Z,100735.26
2018-01-03T01:50:16.283Z,100736.14
2018-01-03T01:53:18.175Z,100720.90
2018-01-03T01:56:20.034Z,100718.42
2018-01-03T01:59:21.914Z,100713.06
2018-01-03T02:02:23.787Z,100709.52
2018-01-03T02:05:25.655Z,100692.14
2018-01-03T02:08:27.543Z,100669.51
2018-01-03T02:11:29.454Z,100666.78
2018-01-03T02:14:31.298Z,100639.63
2018-01-03T02:17:33.191Z,100637.45
2018-01-03T02:20:35.083Z,100634.72
2018-01-03T02:23:37.348Z,100621.67
2018-01-03T02:26:39.202Z,100599.63
2018-01-03T02:29:41.080Z,100572.38
2018-01-03T02:32:42.951Z,100547.37
2018-01-03T02:35:44.844Z,100514.49
2018-01-03T02:38:46.692Z,100501.35
2018-01-03T02:41:48.563Z,100501.93
2018-01-03T02:44:50.427Z,100503.83
2018-01-03T02:47:52.323Z,100481.80
2018-01-03T02:50:54.188Z,100472.25
2018-01-03T02:53:56.075Z,100459.99
2018-01-03T02:56:57.967Z,100427.85
2018-01-03T02:59:59.871Z,100404.68
2018-01-03T03:03:01.735Z,100386.74
2018-01-03T03:06:03.627Z,100363.58
2018-01-03T03:09:05.499Z,100352.44
2018-01-03T03:12:07.364Z,100322.77
2018-01-03T03:15:09.255Z,100290.07
2018-01-03T03:18:11.119Z,100276.22
2018-01-03T03:21:13.014Z,100245.82
2018-01-03T03:24:14.883Z,100245.24
2018-01-03T03:27:16.773Z,100240.56
2018-01-03T03:30:18.633Z,100215.26
2018-01-03T03:33:20.510Z,100211.76
2018-01-03T03:36:22.366Z,100187.01
2018-01-03T03:39:24.253Z,100185.64
2018-01-03T03:42:26.122Z,100185.64
2018-01-03T03:45:28.009Z,100153.27
2018-01-03T03:48:29.891Z,100128.51
2018-01-03T03:51:31.751Z,100112.98
2018-01-03T03:54:33.629Z,100107.29
2018-01-03T03:57:35.482Z,100107.07
2018-01-03T04:00:37.368Z,100080.61
2018-01-03T04:03:39.227Z,100084.69
2018-01-03T04:06:41.115Z,100074.92
2018-01-03T04:09:42.983Z,100034.41
2018-01-03T04:12:44.868Z,99982.43
2018-01-03T04:15:46.719Z,99929.31
2018-01-03T04:18:48.599Z,99932.81
2018-01-03T04:21:50.462Z,99904.88
2018-01-03T04:24:52.557Z,99875.50
2018-01-03T04:27:54.416Z,99860.52
2018-01-03T04:30:56.291Z,99846.67
2018-01-03T04:33:58.179Z,99846.89
2018-01-03T04:37:00.135Z,99862.43
2018-01-03T04:40:02.011Z,99821.57
2018-01-03T04:43:03.875Z,99844.49
2018-01-03T04:46:05.763Z,99845.08
2018-01-03T04:49:07.674Z,99793.33
2018-01-03T04:52:09.527Z,99768.60
2018-01-03T04:55:11.418Z,99753.93
2018-01-03T04:58:13.275Z,99751.44
2018-01-03T05:01:15.154Z,99730.01
2018-01-03T05:04:17.015Z,99705.50
2018-01-03T05:07:18.899Z,99686.98
2018-01-03T05:10:20.773Z,99690.75
2018-01-03T05:13:22.643Z,99712.99
2018-01-03T05:16:24.515Z,99689.16
2018-01-03T05:19:26.423Z,99659.89
2018-01-03T05:22:28.262Z,99625.16
2018-01-03T05:25:30.119Z,99583.62
2018-01-03T05:28:32.290Z,99539.52
2018-01-03T05:31:34.171Z,99544.22
2018-01-03T05:34:36.117Z,99536.94
2018-01-03T05:37:37.923Z,99529.30
2018-01-03T05:40:39.811Z,99525.34
2018-01-03T05:43:41.683Z,99498.77
2018-01-03T05:46:43.599Z,99505.11
2018-01-03T05:49:45.480Z,99507.91
2018-01-03T05:52:47.347Z,99523.20
2018-01-03T05:55:49.230Z,99554.66
2018-01-03T05:58:51.099Z,99486.05
2018-01-03T06:01:52.973Z,99472.87
2018-01-03T06:04:54.860Z,99421.96
2018-01-03T06:07:56.753Z,99397.06
2018-01-03T06:10:58.627Z,99369.10
2018-01-03T06:14:00.751Z,99357.06
2018-01-03T06:17:02.779Z,99309.23
2018-01-03T06:20:04.651Z,99313.98
2018-01-03T06:23:06.615Z,99304.84
2018-01-03T06:26:08.494Z,99326.54
2018-01-03T06:29:10.348Z,99313.34
2018-01-03T06:32:12.236Z,99307.95
2018-01-03T06:35:14.115Z,99299.65
2018-01-03T06:38:16.001Z,99300.64
2018-01-03T06:41:17.875Z,99313.13
2018-01-03T06:44:19.744Z,99328.94
2018-01-03T06:47:21.878Z,99289.62
2018-01-03T06:50:23.729Z,99312.43
2018-01-03T06:53:25.622Z,99332.55
2018-01-03T06:56:27.487Z,99622.30
2018-01-03T06:59:29.395Z,99587.85
2018-01-03T07:02:31.259Z,99570.11
2018-01-03T07:05:33.155Z,99618.67
2018-01-03T07:08:35.020Z,99635.25
2018-01-03T07:11:37.188Z,99660.57
2018-01-03T07:14:39.056Z,99656.04
2018-01-03T07:17:40.934Z,99680.71
2018-01-03T07:20:42.859Z,99671.02
2018-01-03T07:23:44.731Z,99665.24
2018-01-03T07:26:46.704Z,99666.82
2018-01-03T07:29:48.551Z,99676.78
2018-01-03T07:32:50.570Z,99663.81
2018-01-03T07:35:52.431Z,99701.67
2018-01-03T07:38:54.310Z,99738.76
2018-01-03T07:41:56.183Z,99704.52
2018-01-03T07:44:58.071Z,99702.60
2018-01-03T07:47:59.947Z,99664.70
2018-01-03T07:51:01.834Z,99671.21
2018-01-03T07:54:03.687Z,99719.72
2018-01-03T07:57:05.571Z,99716.22
2018-01-03T08:00:07.461Z,99688.71
2018-01-03T08:03:09.371Z,99661.28
2018-01-03T08:06:11.223Z,99666.51
2018-01-03T08:09:13.107Z,99670.28
2018-01-03T08:12:14.958Z,99671.28
2018-01-03T08:15:16.871Z,99667.78
2018-01-03T08:18:18.737Z,99683.78
2018-01-03T08:21:20.631Z,99644.81
2018-01-03T08:24:22.491Z,99694.15
2018-01-03T08:27:24.371Z,99755.18
2018-01-03T08:30:26.238Z,99775.33
2018-01-03T08:33:28.105Z,99741.43
2018-01-03T08:36:29.951Z,99708.10
2018-01-03T08:39:31.815Z,99713.00
2018-01-03T08:42:33.672Z,99766.67
2018-01-03T08:45:35.595Z,99805.88
2018-01-03T08:48:37.758Z,99787.59
2018-01-03T08:51:39.643Z,99763.02
2018-01-03T08:54:41.522Z,99768.48
2018-01-03T08:57:43.383Z,99753.48
2018-01-03T09:00:45.280Z,99777.22
2018-01-03T09:03:48.238Z,99776.98
2018-01-03T09:06:50.123Z,99769.79
2018-01-03T09:09:51.989Z,99770.58
2018-01-03T09:12:53.919Z,99767.85
2018-01-03T09:15:55.771Z,99786.04
2018-01-03T09:18:57.667Z,99804.11
2018-01-03T09:21:59.538Z,99831.09
2018-01-03T09:25:01.414Z,99853.93
2018-01-03T09:28:03.308Z,99883.05
2018-01-03T09:31:05.175Z,99874.85
2018-01-03T09:34:07.031Z,99858.02
2018-01-03T09:37:08.968Z,99865.90
2018-01-03T09:40:10.823Z,99847.24
2018-01-03T09:43:12.712Z,99815.48
2018-01-03T09:46:14.637Z,99832.21
2018-01-03T09:49:16.452Z,99810.69
2018-01-03T09:52:18.343Z,99856.06
2018-01-03T09:55:20.239Z,99839.22
2018-01-03T09:58:22.177Z,99846.12
2018-01-03T10:01:24.060Z,99817.45
2018-01-03T10:04:25.924Z,99844.98
2018-01-03T10:07:27.991Z,99823.81
2018-01-03T10:10:29.859Z,99840.42
2018-01-03T10:13:31.748Z,99816.29
2018-01-03T10:16:33.614Z,99891.62
2018-01-03T10:19:35.815Z,99886.15
2018-01-03T10:22:37.695Z,99793.14
2018-01-03T10:25:39.751Z,99874.64
2018-01-03T10:28:41.878Z,99890.47
2018-01-03T10:31:43.795Z,99913.09
2018-01-03T10:34:45.730Z,99929.48
2018-01-03T10:37:47.802Z,99952.92
2018-01-03T10:40:49.719Z,99960.34
2018-01-03T10:43:51.583Z,99964.22
2018-01-03T10:46:53.459Z,99950.11
2018-01-03T10:49:55.344Z,99953.16
2018-01-03T10:52:57.431Z,99972.64
2018-01-03T10:55:59.504Z,99967.77
2018-01-03T10:59:01.368Z,99978.69
2018-01-03T11:02:03.254Z,99968.09
2018-01-03T11:05:05.136Z,99963.45
2018-01-03T11:08:07.233Z,99981.97
2018-01-03T11:11:09.110Z,99989.39
2018-01-03T11:14:10.971Z,100012.61
2018-01-03T11:17:13.026Z,100020.57
2018-01-03T11:20:14.888Z,100032.27
2018-01-03T11:23:16.759Z,100041.38
2018-01-03T11:26:18.599Z,100038.09
2018-01-03T11:29:20.519Z,100051.74
2018-01-03T11:32:22.374Z,100051.74
2018-01-03T11:35:24.271Z,100057.76
2018-01-03T11:38:26.140Z,100073.00
2018-01-03T11:41:28.039Z,100080.97
2018-01-03T11:44:29.940Z,100085.66
2018-01-03T11:47:31.810Z,100094.62
2018-01-03T11:50:33.715Z,100094.39
2018-01-03T11:53:35.579Z,100108.64
2018-01-03T11:56:37.464Z,100118.75
2018-01-03T11:59:39.311Z,100123.21
2018-01-03T12:02:41.196Z,100132.53
2018-01-03T12:05:43.063Z,100136.94
2018-01-03T12:08:44.938Z,100124.20
2018-01-03T12:11:46.829Z,100133.75
2018-01-03T12:14:48.744Z,100161.77
2018-01-03T12:17:50.596Z,100161.67
2018-01-03T12:20:52.482Z,100169.65
2018-01-03T12:23:54.326Z,100174.17
2018-01-03T12:26:56.203Z,100179.86
2018-01-03T12:29:58.054Z,100188.28
2018-01-03T12:33:00.244Z,100188.76
2018-01-03T12:36:02.071Z,100191.57
2018-01-03T12:39:04.143Z,100227.22
2018-01-03T12:42:06.043Z,100226.05
2018-01-03T12:48:31.949Z,100265.43
2018-01-03T12:51:33.803Z,100252.33
2018-01-03T12:54:35.691Z,100256.11
2018-01-03T12:57:37.567Z,100275.77
2018-01-03T13:00:39.442Z,100284.78
2018-01-03T13:03:41.298Z,100283.96
2018-01-03T13:06:43.243Z,100312.33
2018-01-03T13:09:45.139Z,100309.67
2018-01-03T13:12:47.309Z,100326.50
2018-01-03T13:15:49.623Z,100336.72
2018-01-03T13:18:51.499Z,100340.73
2018-01-03T13:21:53.358Z,100347.37
2018-01-03T13:24:55.241Z,100365.55
2018-01-03T13:27:57.227Z,100359.97
2018-01-03T13:30:59.083Z,100382.28
2018-01-03T13:34:01.280Z,100375.14
2018-01-03T13:37:03.207Z,100365.81
2018-01-03T13:40:05.127Z,100375.02
2018-01-03T13:43:07.094Z,100378.57
2018-01-03T13:46:09.310Z,100393.24
2018-01-03T13:49:11.199Z,100389.37
2018-01-03T13:52:13.091Z,100385.86
2018-01-03T13:55:15.023Z,100389.14
2018-01-03T13:58:16.987Z,100389.14
2018-01-03T14:01:18.909Z,100404.98
2018-01-03T14:04:20.779Z,100390.74
2018-01-03T14:07:22.699Z,100404.39
2018-01-03T14:10:24.567Z,100413.95
2018-01-03T14:13:26.619Z,100436.04
2018-01-03T14:16:28.570Z,100434.67
2018-01-03T14:19:30.499Z,100425.65
2018-01-03T14:22:32.483Z,100445.01
2018-01-03T14:25:34.395Z,100468.23
2018-01-03T14:28:36.291Z,100470.96
2018-01-03T14:31:38.175Z,100452.43
2018-01-03T14:34:40.126Z,100475.05
2018-01-03T14:37:43.015Z,100513.77
2018-01-03T14:40:44.988Z,100503.19
2018-01-03T14:43:46.911Z,100506.47
2018-01-03T14:46:49.106Z,100508.89
2018-01-03T14:49:50.971Z,100505.33
2018-01-03T14:52:53.119Z,100496.59
2018-01-03T14:55:55.079Z,100501.24
2018-01-03T14:58:57.001Z,100506.28
2018-01-03T15:01:58.975Z,100496.59
2018-01-03T15:05:01.118Z,100506.71
2018-01-03T15:08:02.984Z,100519.00
2018-01-03T15:11:04.919Z,100534.02
2018-01-03T15:14:06.912Z,100532.65
2018-01-03T15:17:09.219Z,100551.23
2018-01-03T15:20:11.148Z,100547.91
2018-01-03T15:23:13.036Z,100552.01
2018-01-03T15:26:14.923Z,100559.66
2018-01-03T15:29:16.851Z,100566.72
2018-01-03T15:32:18.819Z,100572.42
2018-01-03T15:35:20.878Z,100587.69
2018-01-03T15:38:22.863Z,100596.65
2018-01-03T15:41:24.811Z,100610.31
2018-01-03T15:44:26.778Z,100602.12
2018-01-03T15:47:28.725Z,100593.92
2018-01-03T15:50:30.664Z,100599.57
2018-01-03T15:53:32.594Z,100606.57
2018-01-03T15:56:34.514Z,100610.67
2018-01-03T15:59:36.400Z,100599.15
2018-01-03T16:02:38.368Z,100601.11
2018-01-03T16:05:40.230Z,100605.44
2018-01-03T16:08:42.116Z,100606.80
2018-01-03T16:11:43.970Z,100609.19
2018-01-03T16:14:45.927Z,100606.27
2018-01-03T16:17:47.900Z,100609.71
2018-01-03T16:20:50.056Z,100608.81
2018-01-03T16:23:52.124Z,100609.52
2018-01-03T16:26:54.039Z,100535.55
2018-01-03T16:29:56.051Z,100600.24
2018-01-03T16:32:58.027Z,100604.10
2018-01-03T16:35:59.963Z,100606.05
2018-01-03T16:39:01.934Z,100614.25
2018-01-03T16:42:03.903Z,100614.25
2018-01-03T16:45:05.810Z,100609.02
2018-01-03T16:48:07.827Z,100598.88
2018-01-03T16:51:09.810Z,100588.83
2018-01-03T16:54:11.795Z,100605.47
2018-01-03T16:57:14.132Z,100601.60
2018-01-03T17:00:16.051Z,100606.53
2018-01-03T17:03:17.967Z,100601.13
2018-01-03T17:06:20.287Z,100612.96
2018-01-03T17:09:22.320Z,100628.88
2018-01-03T17:12:24.246Z,100639.82
2018-01-03T17:15:26.159Z,100636.61
2018-01-03T17:18:28.139Z,100639.93
2018-01-03T17:21:30.063Z,100632.04
2018-01-03T17:24:32.899Z,100645.15
2018-01-03T17:27:34.811Z,100645.23
2018-01-03T17:30:36.770Z,100640.94
2018-01-03T17:33:38.684Z,100649.73
2018-01-03T17:36:40.938Z,100664.52
2018-01-03T17:39:42.894Z,100644.80
2018-01-03T17:42:44.819Z,100650.62
2018-01-03T17:45:46.725Z,100651.63
2018-01-03T17:48:48.688Z,100643.44
2018-01-03T17:51:50.615Z,100652.46
2018-01-03T17:54:52.527Z,100646.34
2018-01-03T17:57:54.522Z,100657.15
2018-01-03T18:00:56.474Z,100679.18
2018-01-03T18:03:58.411Z,100670.40
2018-01-03T18:07:00.412Z,100685.93
2018-01-03T18:10:02.461Z,100683.74
2018-01-03T18:13:04.387Z,100686.48
2018-01-03T18:16:06.293Z,100683.43
2018-01-03T18:19:08.308Z,100687.77
2018-01-03T18:22:10.258Z,100693.12
2018-01-03T18:25:12.200Z,100689.37
2018-01-03T18:28:14.099Z,100686.79
2018-01-03T18:31:15.995Z,100684.95
2018-01-03T18:34:17.959Z,100681.75
2018-01-03T18:37:19.868Z,100685.06
2018-01-03T18:40:21.800Z,100689.16
2018-01-03T18:43:24.766Z,100690.76
2018-01-03T18:46:26.678Z,100685.30
2018-01-03T18:49:28.666Z,100680.97
2018-01-03T18:52:30.593Z,100673.55
2018-01-03T18:55:33.456Z,100693.57
2018-01-03T18:58:35.611Z,100689.82
2018-01-03T19:01:37.587Z,100676.70
2018-01-03T19:04:39.479Z,100682.99
2018-01-03T19:07:41.404Z,100672.95
2018-01-03T19:10:43.328Z,100675.69
2018-01-03T19:13:45.318Z,100676.81
2018-01-03T19:16:47.319Z,100690.30
2018-01-03T19:19:49.530Z,100706.34
2018-01-03T19:22:51.527Z,100714.47
2018-01-03T19:25:53.517Z,100707.55
2018-01-03T19:28:55.419Z,100702.68
2018-01-03T19:31:57.383Z,100701.58
2018-01-03T19:34:59.296Z,100722.43
2018-01-03T19:38:01.199Z,100712.87
2018-01-03T19:41:03.227Z,100704.08
2018-01-03T19:44:05.103Z,100698.97
2018-01-03T19:47:07.034Z,100688.58
2018-01-03T19:50:08.922Z,100696.36
2018-01-03T19:53:10.823Z,100685.72
2018-01-03T19:56:12.827Z,100683.07
2018-01-03T19:59:14.739Z,100692.87
2018-01-03T20:02:16.703Z,100693.09
2018-01-03T20:05:18.818Z,100709.73
2018-01-03T20:08:20.759Z,100713.83
2018-01-03T20:11:22.767Z,100721.49
2018-01-03T20:14:24.751Z,100720.66
2018-01-03T20:17:26.674Z,100720.89
2018-01-03T20:20:28.688Z,100736.25
2018-01-03T20:23:30.643Z,100728.17
2018-01-03T20:26:32.556Z,100739.46
2018-01-03T20:29:34.781Z,100735.20
2018-01-03T20:32:36.749Z,100735.51
2018-01-03T20:35:38.671Z,100739.95
2018-01-03T20:38:40.654Z,100734.56
2018-01-03T20:41:42.596Z,100730.22
2018-01-03T20:44:44.555Z,100728.31
2018-01-03T20:47:46.494Z,100712.81
2018-01-03T20:50:48.491Z,100725.41
2018-01-03T20:53:50.391Z,100736.93
2018-01-03T20:56:52.284Z,100733.14
2018-01-03T20:59:54.198Z,100742.22
2018-01-03T21:02:56.140Z,100745.53
2018-01-03T21:05:58.091Z,100734.92
2018-01-03T21:09:00.015Z,100728.32
2018-01-03T21:12:01.931Z,100740.62
2018-01-03T21:15:03.851Z,100743.04
2018-01-03T21:18:05.779Z,100743.47
2018-01-03T21:21:07.999Z,100749.35
2018-01-03T21:24:09.882Z,100742.27
2018-01-03T21:27:11.823Z,100745.59
2018-01-03T21:30:13.699Z,100752.83
2018-01-03T21:33:15.638Z,100750.27
2018-01-03T21:36:17.540Z,100752.52
2018-01-03T21:39:19.547Z,100757.07
2018-01-03T21:42:21.417Z,100741.57
2018-01-03T21:45:23.404Z,100723.34
2018-01-03T21:48:25.258Z,100738.46
2018-01-03T21:51:27.183Z,100749.45
2018-01-03T21:54:29.070Z,100761.84
2018-01-03T21:57:30.981Z,100753.72
2018-01-03T22:00:32.920Z,100744.26
2018-01-03T22:03:34.962Z,100749.25
2018-01-03T22:06:36.843Z,100757.54
2018-01-03T22:09:38.703Z,100757.84
2018-01-03T22:12:40.578Z,100737.23
2018-01-03T22:15:42.425Z,100735.87
2018-01-03T22:18:44.307Z,100741.09
2018-01-03T22:21:46.203Z,100749.33
2018-01-03T22:24:48.080Z,100752.41
2018-01-03T22:27:49.959Z,100745.65
2018-01-03T22:30:52.126Z,100729.91
2018-01-03T22:33:53.995Z,100735.37
2018-01-03T22:36:55.854Z,100746.63
2018-01-03T22:39:57.714Z,100746.69
2018-01-03T22:42:59.915Z,100745.09
2018-01-03T22:46:01.775Z,100745.93
2018-01-03T22:49:03.692Z,100746.28
2018-01-03T22:52:05.561Z,100739.21
2018-01-03T22:55:07.430Z,100733.28
2018-01-03T22:58:09.287Z,100739.08
2018-01-03T23:01:11.171Z,100728.71
2018-01-03T23:04:13.059Z,100729.59
2018-01-03T23:07:14.923Z,100741.09
2018-01-03T23:10:16.812Z,100733.21
2018-01-03T23:13:18.663Z,100740.37
2018-01-03T23:16:20.548Z,100740.43
2018-01-03T23:19:22.425Z,100737.46
2018-01-03T23:22:24.280Z,100726.30
2018-01-03T23:25:26.207Z,100733.47
2018-01-03T23:28:28.072Z,100733.23
2018-01-03T23:31:29.960Z,100741.47
2018-01-03T23:34:31.849Z,100750.77
2018-01-03T23:37:33.738Z,100749.75
2018-01-03T23:40:35.590Z,100749.75
2018-01-03T23:43:37.491Z,100751.17
2018-01-03T23:46:39.356Z,100753.66
2018-01-03T23:49:41.247Z,100749.81
2018-01-03T23:52:43.108Z,100749.91
2018-01-03T23:55:44.985Z,100733.60
2018-01-03T23:58:46.836Z,100725.18
